createdAt,value
2022-09-11T00:02:40.264Z,5.10
2022-09-11T00:07:41.780Z,4.63
2022-09-11T00:12:43.486Z,5.17
2022-09-11T00:17:44.978Z,5.37
2022-09-11T00:22:48.576Z,5.60
2022-09-11T00:27:51.791Z,5.50
2022-09-11T00:32:53.271Z,5.40
2022-09-11T00:37:54.792Z,4.87
2022-09-11T00:42:57.426Z,5.07
2022-09-11T00:47:59.593Z,4.90
2022-09-11T00:53:03.988Z,5.83
2022-09-11T00:58:08.480Z,5.23
2022-09-11T01:03:10.914Z,5.13
2022-09-11T01:08:14.434Z,6.57
2022-09-11T01:13:22.088Z,6.50
2022-09-11T01:19:01.875Z,6.90
2022-09-11T01:24:39.871Z,7.30
2022-09-11T01:29:57.946Z,6.87
2022-09-11T01:35:17.833Z,7.60
2022-09-11T01:40:31.910Z,7.30
2022-09-11T01:45:37.340Z,7.23
2022-09-11T01:50:41.711Z,7.17
2022-09-11T01:55:46.518Z,8.30
2022-09-11T02:00:51.853Z,7.93
2022-09-11T02:05:59.482Z,8.17
2022-09-11T02:11:07.149Z,8.63
2022-09-11T02:16:16.668Z,8.33
2022-09-11T02:21:18.367Z,8.73
2022-09-11T02:26:21.255Z,10.23
2022-09-11T02:31:22.932Z,10.13
2022-09-11T02:36:36.543Z,11.17
2022-09-11T02:42:07.170Z,10.67
2022-09-11T02:47:27.934Z,10.33
2022-09-11T02:52:50.515Z,11.33
2022-09-11T02:58:02.620Z,12.33
2022-09-11T03:03:06.722Z,12.13
2022-09-11T03:08:08.618Z,12.10
2022-09-11T03:13:11.114Z,14.20
2022-09-11T03:18:15.624Z,12.53
2022-09-11T03:23:17.525Z,13.83
2022-09-11T03:28:19.380Z,13.63
2022-09-11T03:33:23.666Z,15.53
2022-09-11T03:38:25.330Z,14.50
2022-09-11T03:43:28.300Z,16.43
2022-09-11T03:48:29.841Z,15.33
2022-09-11T03:53:32.981Z,16.47
2022-09-11T03:58:34.579Z,15.57
2022-09-11T04:03:36.264Z,15.23
2022-09-11T04:08:40.002Z,14.67
2022-09-11T04:13:43.792Z,15.90
2022-09-11T04:18:49.439Z,17.70
2022-09-11T04:23:56.367Z,18.40
2022-09-11T04:28:59.851Z,17.63
2022-09-11T04:34:01.496Z,16.13
2022-09-11T04:39:07.405Z,19.87
2022-09-11T04:44:09.168Z,19.47
2022-09-11T04:49:17.187Z,20.37
2022-09-11T04:54:23.931Z,19.13
2022-09-11T04:59:26.418Z,18.57
2022-09-11T05:04:33.311Z,18.63
2022-09-11T05:09:36.283Z,21.00
2022-09-11T05:14:39.361Z,21.70
2022-09-11T05:19:41.140Z,22.10
2022-09-11T05:24:43.292Z,23.50
2022-09-11T05:29:44.859Z,22.47
2022-09-11T05:34:49.769Z,23.07
2022-09-11T05:39:54.341Z,24.43
2022-09-11T05:44:55.924Z,22.30
2022-09-11T05:50:01.396Z,19.00
2022-09-11T05:55:03.040Z,20.07
2022-09-11T06:00:06.826Z,18.00
2022-09-11T06:05:11.787Z,18.67
2022-09-11T06:10:13.735Z,19.37
2022-09-11T06:15:36.347Z,19.93
2022-09-11T06:20:39.757Z,21.07
2022-09-11T06:25:44.931Z,22.97
2022-09-11T06:30:49.425Z,23.10
2022-09-11T06:35:58.692Z,22.43
2022-09-11T06:41:03.027Z,21.67
2022-09-11T06:46:12.675Z,21.23
2022-09-11T06:51:17.521Z,21.30
2022-09-11T06:56:19.135Z,20.07
2022-09-11T07:01:22.829Z,26.08
2022-09-11T07:06:30.287Z,20.47
2022-09-11T07:11:34.227Z,19.43
2022-09-11T07:16:36.700Z,21.30
2022-09-11T07:21:43.322Z,18.33
2022-09-11T07:26:45.543Z,19.33
2022-09-11T07:31:57.763Z,20.07
2022-09-11T07:36:59.640Z,22.70
2022-09-11T07:42:02.004Z,24.07
2022-09-11T07:47:07.285Z,24.50
2022-09-11T07:52:16.985Z,24.27
2022-09-11T07:57:24.208Z,24.93
2022-09-11T08:02:26.327Z,26.30
2022-09-11T08:07:28.623Z,26.30
2022-09-11T08:12:31.416Z,24.93
2022-09-11T08:17:32.936Z,26.73
2022-09-11T08:22:34.475Z,25.17
2022-09-11T08:27:36.160Z,24.33
2022-09-11T08:32:37.826Z,22.33
2022-09-11T08:37:40.111Z,18.53
2022-09-11T08:42:43.774Z,22.10
2022-09-11T08:47:56.651Z,21.03
2022-09-11T08:53:00.468Z,18.37
2022-09-11T08:58:17.672Z,23.10
2022-09-11T09:03:41.917Z,19.57
2022-09-11T09:08:55.495Z,20.13
2022-09-11T09:14:19.913Z,20.47
2022-09-11T09:19:48.187Z,19.43
2022-09-11T09:24:52.218Z,20.93
2022-09-11T09:29:57.707Z,21.47
2022-09-11T09:35:03.358Z,19.90
2022-09-11T09:40:09.262Z,20.27
2022-09-11T09:45:37.611Z,20.97
2022-09-11T09:50:40.994Z,21.47
2022-09-11T09:55:45.405Z,20.93
2022-09-11T10:00:46.846Z,21.17
2022-09-11T10:05:54.506Z,20.60
2022-09-11T10:11:01.610Z,19.80
2022-09-11T10:16:04.806Z,18.00
2022-09-11T10:21:12.710Z,15.10
2022-09-11T10:26:21.327Z,15.17
2022-09-11T10:31:22.949Z,12.57
2022-09-11T10:36:27.180Z,13.50
2022-09-11T10:41:34.159Z,13.43
2022-09-11T10:46:41.507Z,12.20
2022-09-11T10:51:59.833Z,9.30
2022-09-11T10:57:16.606Z,10.00
2022-09-11T11:02:35.302Z,9.67
2022-09-11T11:07:48.991Z,8.70
2022-09-11T11:13:22.642Z,8.30
2022-09-11T11:18:33.703Z,7.37
2022-09-11T11:23:56.972Z,7.33
2022-09-11T11:29:01.015Z,6.83
2022-09-11T11:34:15.218Z,7.50
2022-09-11T11:39:26.113Z,8.00
2022-09-11T11:44:51.349Z,7.20
2022-09-11T11:50:11.310Z,8.00
2022-09-11T11:55:20.663Z,6.53
2022-09-11T12:00:22.415Z,5.90
2022-09-11T12:05:33.661Z,6.87
2022-09-11T12:10:39.440Z,8.50
2022-09-11T12:15:57.875Z,8.60
2022-09-11T12:21:24.515Z,7.77
2022-09-11T12:26:26.905Z,7.83
2022-09-11T12:31:49.464Z,7.77
2022-09-11T12:37:07.270Z,7.93
2022-09-11T12:42:23.876Z,8.30
2022-09-11T12:47:43.552Z,8.10
2022-09-11T12:52:45.090Z,9.03
2022-09-11T12:57:46.621Z,8.67
2022-09-11T13:02:53.816Z,8.97
2022-09-11T13:07:57.985Z,8.20
2022-09-11T13:13:02.456Z,8.67
2022-09-11T13:18:36.260Z,8.50
2022-09-11T13:23:38.141Z,7.83
2022-09-11T13:28:47.297Z,8.07
2022-09-11T13:33:52.439Z,8.77
2022-09-11T13:38:57.785Z,9.23
2022-09-11T13:44:01.058Z,8.80
2022-09-11T13:49:06.625Z,7.87
2022-09-11T13:54:30.346Z,7.87
2022-09-11T13:59:36.788Z,7.80
2022-09-11T14:04:40.860Z,8.23
2022-09-11T14:09:47.048Z,8.13
2022-09-11T14:14:52.317Z,8.50
2022-09-11T14:19:58.926Z,8.57
2022-09-11T14:25:20.915Z,7.90
2022-09-11T14:30:31.484Z,7.67
2022-09-11T14:35:36.369Z,7.27
2022-09-11T14:40:38.161Z,7.07
2022-09-11T14:45:39.733Z,8.00
2022-09-11T14:50:41.634Z,7.00
2022-09-11T14:55:44.138Z,7.67
2022-09-11T15:00:45.868Z,7.47
2022-09-11T15:05:52.486Z,6.27
2022-09-11T15:10:53.964Z,7.10
2022-09-11T15:15:56.075Z,6.60
2022-09-11T15:20:57.730Z,6.37
2022-09-11T15:26:01.652Z,6.57
2022-09-11T15:31:04.356Z,6.70
2022-09-11T15:36:06.705Z,7.20
2022-09-11T15:41:08.918Z,7.03
2022-09-11T15:46:11.394Z,7.13
2022-09-11T15:51:14.262Z,6.53
2022-09-11T15:56:18.218Z,6.30
2022-09-11T16:01:28.737Z,6.40
2022-09-11T16:06:37.535Z,6.63
2022-09-11T16:11:43.929Z,6.00
2022-09-11T16:16:47.056Z,6.07
2022-09-11T16:21:49.567Z,5.87
2022-09-11T16:26:54.319Z,5.47
2022-09-11T16:31:56.080Z,5.97
2022-09-11T16:36:58.317Z,5.43
2022-09-11T16:41:59.791Z,5.93
2022-09-11T16:47:01.722Z,5.60
2022-09-11T16:52:04.177Z,6.03
2022-09-11T16:57:06.541Z,6.00
2022-09-11T17:02:10.016Z,5.13
2022-09-11T17:07:12.027Z,5.97
2022-09-11T17:12:13.794Z,5.10
2022-09-11T17:17:15.848Z,5.43
2022-09-11T17:22:17.770Z,4.93
2022-09-11T17:27:19.378Z,5.23
2022-09-11T17:32:29.797Z,5.33
2022-09-11T17:37:31.313Z,4.97
2022-09-11T17:42:33.315Z,4.57
2022-09-11T17:47:34.819Z,4.87
2022-09-11T17:52:36.862Z,5.10
2022-09-11T17:57:38.324Z,5.43
2022-09-11T18:02:40.272Z,4.87
2022-09-11T18:07:42.374Z,4.83
2022-09-11T18:12:43.795Z,5.33
2022-09-11T18:17:47.629Z,5.07
2022-09-11T18:22:50.183Z,5.03
2022-09-11T18:27:51.755Z,5.30
2022-09-11T18:32:53.292Z,5.60
2022-09-11T18:37:55.128Z,5.20
2022-09-11T18:42:56.742Z,5.40
2022-09-11T18:47:59.994Z,6.17
2022-09-11T18:53:02.601Z,6.23
2022-09-11T18:58:05.493Z,6.50
2022-09-11T19:03:07.134Z,5.90
2022-09-11T19:08:08.562Z,6.43
2022-09-11T19:13:10.208Z,5.63
2022-09-11T19:18:11.733Z,6.07
2022-09-11T19:23:13.342Z,5.93
2022-09-11T19:28:14.803Z,6.20
2022-09-11T19:33:16.362Z,6.37
2022-09-11T19:38:18.634Z,6.73
2022-09-11T19:43:24.768Z,6.20
2022-09-11T19:48:26.227Z,6.90
2022-09-11T19:53:28.123Z,5.73
2022-09-11T19:58:30.609Z,6.50
2022-09-11T20:03:32.074Z,6.37
2022-09-11T20:08:34.623Z,6.43
2022-09-11T20:13:36.825Z,6.63
2022-09-11T20:18:38.426Z,6.57
2022-09-11T20:23:40.242Z,7.10
2022-09-11T20:28:42.197Z,7.20
2022-09-11T20:33:44.871Z,7.07
2022-09-11T20:38:53.892Z,7.17
2022-09-11T20:43:56.954Z,7.67
2022-09-11T20:49:00.032Z,8.27
2022-09-11T20:54:02.327Z,7.67
2022-09-11T20:59:03.898Z,7.67
2022-09-11T21:04:05.525Z,8.63
2022-09-11T21:09:08.879Z,8.17
2022-09-11T21:14:14.990Z,8.83
2022-09-11T21:19:16.954Z,8.37
2022-09-11T21:24:18.453Z,8.70
2022-09-11T21:29:19.972Z,9.17
2022-09-11T21:34:21.431Z,9.13
2022-09-11T21:39:22.873Z,8.10
2022-09-11T21:44:24.546Z,8.67
2022-09-11T21:49:26.116Z,8.37
2022-09-11T21:54:31.733Z,7.80
2022-09-11T21:59:33.554Z,8.93
2022-09-11T22:04:35.058Z,8.83
2022-09-11T22:09:36.927Z,8.23
2022-09-11T22:14:38.464Z,8.33
2022-09-11T22:19:43.262Z,8.87
2022-09-11T22:24:45.340Z,9.17
2022-09-11T22:29:47.220Z,8.83
2022-09-11T22:34:49.849Z,8.33
2022-09-11T22:39:51.593Z,8.43
2022-09-11T22:44:53.194Z,9.50
2022-09-11T22:49:54.623Z,9.23
2022-09-11T22:54:56.050Z,8.50
2022-09-11T22:59:57.995Z,8.47
2022-09-11T23:05:17.874Z,8.63
2022-09-11T23:10:23.459Z,9.10
2022-09-11T23:15:24.937Z,8.87
2022-09-11T23:20:26.707Z,8.03
2022-09-11T23:25:28.223Z,9.10
2022-09-11T23:30:29.957Z,8.60
2022-09-11T23:35:31.723Z,8.80
2022-09-11T23:40:33.804Z,8.83
2022-09-11T23:45:35.263Z,8.77
2022-09-11T23:50:39.037Z,9.17
2022-09-11T23:55:42.385Z,9.30
